sensor_id;sensor_type;location;lat;lon;timestamp;P1;durP1;ratioP1;P2;durP2;ratioP2
68234;SDS011;55052;52.056;5.296;2023-05-07T00:01:33;13.77;;;9.10;;
68234;SDS011;55052;52.056;5.296;2023-05-07T00:04:00;12.00;;;8.82;;
68234;SDS011;55052;52.056;5.296;2023-05-07T00:06:27;11.48;;;9.00;;
68234;SDS011;55052;52.056;5.296;2023-05-07T00:08:56;11.75;;;8.73;;
68234;SDS011;55052;52.056;5.296;2023-05-07T00:11:23;16.20;;;9.43;;
68234;SDS011;55052;52.056;5.296;2023-05-07T00:13:50;11.88;;;8.55;;
68234;SDS011;55052;52.056;5.296;2023-05-07T00:16:18;11.95;;;8.23;;
68234;SDS011;55052;52.056;5.296;2023-05-07T00:18:45;11.68;;;8.60;;
68234;SDS011;55052;52.056;5.296;2023-05-07T00:21:12;11.27;;;7.80;;
68234;SDS011;55052;52.056;5.296;2023-05-07T00:23:39;10.30;;;8.15;;
68234;SDS011;55052;52.056;5.296;2023-05-07T00:26:05;11.52;;;7.75;;
68234;SDS011;55052;52.056;5.296;2023-05-07T00:28:32;9.57;;;7.55;;
68234;SDS011;55052;52.056;5.296;2023-05-07T00:30:59;12.68;;;8.68;;
68234;SDS011;55052;52.056;5.296;2023-05-07T00:33:26;10.98;;;7.57;;
68234;SDS011;55052;52.056;5.296;2023-05-07T00:35:53;10.38;;;7.47;;
68234;SDS011;55052;52.056;5.296;2023-05-07T00:38:22;12.27;;;7.70;;
68234;SDS011;55052;52.056;5.296;2023-05-07T00:40:49;11.38;;;7.10;;
68234;SDS011;55052;52.056;5.296;2023-05-07T00:43:17;11.93;;;7.20;;
68234;SDS011;55052;52.056;5.296;2023-05-07T00:45:44;9.98;;;6.47;;
68234;SDS011;55052;52.056;5.296;2023-05-07T00:48:11;10.85;;;6.57;;
68234;SDS011;55052;52.056;5.296;2023-05-07T00:50:40;8.68;;;6.50;;
68234;SDS011;55052;52.056;5.296;2023-05-07T00:53:07;10.40;;;6.50;;
68234;SDS011;55052;52.056;5.296;2023-05-07T00:55:35;11.27;;;6.93;;
68234;SDS011;55052;52.056;5.296;2023-05-07T00:58:03;10.07;;;6.55;;
68234;SDS011;55052;52.056;5.296;2023-05-07T01:00:29;9.00;;;6.50;;
68234;SDS011;55052;52.056;5.296;2023-05-07T01:02:56;9.88;;;6.40;;
68234;SDS011;55052;52.056;5.296;2023-05-07T01:05:24;8.48;;;5.88;;
68234;SDS011;55052;52.056;5.296;2023-05-07T01:07:54;8.75;;;5.72;;
68234;SDS011;55052;52.056;5.296;2023-05-07T01:10:21;11.32;;;6.47;;
68234;SDS011;55052;52.056;5.296;2023-05-07T01:12:48;8.10;;;5.50;;
68234;SDS011;55052;52.056;5.296;2023-05-07T01:15:16;9.18;;;5.82;;
68234;SDS011;55052;52.056;5.296;2023-05-07T01:17:43;9.95;;;6.70;;
68234;SDS011;55052;52.056;5.296;2023-05-07T01:20:11;10.82;;;6.15;;
68234;SDS011;55052;52.056;5.296;2023-05-07T01:22:39;8.65;;;6.55;;
68234;SDS011;55052;52.056;5.296;2023-05-07T01:25:06;10.00;;;6.32;;
68234;SDS011;55052;52.056;5.296;2023-05-07T01:27:34;8.77;;;6.20;;
68234;SDS011;55052;52.056;5.296;2023-05-07T01:30:03;9.90;;;6.32;;
68234;SDS011;55052;52.056;5.296;2023-05-07T01:32:41;13.90;;;6.10;;
68234;SDS011;55052;52.056;5.296;2023-05-07T01:35:15;9.52;;;6.18;;
68234;SDS011;55052;52.056;5.296;2023-05-07T01:37:48;9.32;;;5.88;;
68234;SDS011;55052;52.056;5.296;2023-05-07T01:40:16;9.98;;;6.68;;
68234;SDS011;55052;52.056;5.296;2023-05-07T01:42:43;9.75;;;6.05;;
68234;SDS011;55052;52.056;5.296;2023-05-07T01:45:11;11.85;;;6.60;;
68234;SDS011;55052;52.056;5.296;2023-05-07T01:47:38;10.02;;;6.50;;
68234;SDS011;55052;52.056;5.296;2023-05-07T01:50:06;9.45;;;6.22;;
68234;SDS011;55052;52.056;5.296;2023-05-07T01:52:38;8.13;;;5.85;;
68234;SDS011;55052;52.056;5.296;2023-05-07T01:55:05;7.70;;;5.82;;
68234;SDS011;55052;52.056;5.296;2023-05-07T01:57:32;9.27;;;6.10;;
68234;SDS011;55052;52.056;5.296;2023-05-07T01:59:59;9.57;;;5.68;;
68234;SDS011;55052;52.056;5.296;2023-05-07T02:02:26;8.68;;;5.72;;
68234;SDS011;55052;52.056;5.296;2023-05-07T02:04:53;8.82;;;5.72;;
68234;SDS011;55052;52.056;5.296;2023-05-07T02:07:20;9.23;;;6.10;;
68234;SDS011;55052;52.056;5.296;2023-05-07T02:09:46;10.55;;;5.80;;
68234;SDS011;55052;52.056;5.296;2023-05-07T02:12:13;9.07;;;6.40;;
68234;SDS011;55052;52.056;5.296;2023-05-07T02:14:40;10.50;;;6.38;;
68234;SDS011;55052;52.056;5.296;2023-05-07T02:17:07;9.95;;;6.47;;
68234;SDS011;55052;52.056;5.296;2023-05-07T02:19:34;8.20;;;6.05;;
68234;SDS011;55052;52.056;5.296;2023-05-07T02:22:01;8.75;;;6.10;;
68234;SDS011;55052;52.056;5.296;2023-05-07T02:24:28;8.35;;;6.28;;
68234;SDS011;55052;52.056;5.296;2023-05-07T02:26:55;7.70;;;5.95;;
68234;SDS011;55052;52.056;5.296;2023-05-07T02:29:21;9.40;;;6.30;;
68234;SDS011;55052;52.056;5.296;2023-05-07T02:31:48;12.32;;;6.22;;
68234;SDS011;55052;52.056;5.296;2023-05-07T02:34:19;10.77;;;6.75;;
68234;SDS011;55052;52.056;5.296;2023-05-07T02:36:46;11.32;;;7.20;;
68234;SDS011;55052;52.056;5.296;2023-05-07T02:39:13;9.98;;;7.10;;
68234;SDS011;55052;52.056;5.296;2023-05-07T02:41:41;9.73;;;6.78;;
68234;SDS011;55052;52.056;5.296;2023-05-07T02:44:09;11.82;;;6.60;;
68234;SDS011;55052;52.056;5.296;2023-05-07T02:46:36;10.13;;;7.13;;
68234;SDS011;55052;52.056;5.296;2023-05-07T02:49:02;13.02;;;7.32;;
68234;SDS011;55052;52.056;5.296;2023-05-07T02:51:29;10.82;;;7.22;;
68234;SDS011;55052;52.056;5.296;2023-05-07T02:53:56;11.13;;;6.55;;
68234;SDS011;55052;52.056;5.296;2023-05-07T02:56:25;9.32;;;7.20;;
68234;SDS011;55052;52.056;5.296;2023-05-07T02:58:52;10.27;;;6.80;;
68234;SDS011;55052;52.056;5.296;2023-05-07T03:01:19;10.75;;;6.75;;
68234;SDS011;55052;52.056;5.296;2023-05-07T03:03:47;9.68;;;6.85;;
68234;SDS011;55052;52.056;5.296;2023-05-07T03:06:14;9.65;;;6.63;;
68234;SDS011;55052;52.056;5.296;2023-05-07T03:08:41;11.18;;;7.53;;
68234;SDS011;55052;52.056;5.296;2023-05-07T03:11:08;11.13;;;6.93;;
68234;SDS011;55052;52.056;5.296;2023-05-07T03:13:35;10.32;;;7.15;;
68234;SDS011;55052;52.056;5.296;2023-05-07T03:16:01;12.13;;;7.32;;
68234;SDS011;55052;52.056;5.296;2023-05-07T03:18:28;8.85;;;6.72;;
68234;SDS011;55052;52.056;5.296;2023-05-07T03:20:55;10.45;;;7.10;;
68234;SDS011;55052;52.056;5.296;2023-05-07T03:23:22;8.73;;;7.00;;
68234;SDS011;55052;52.056;5.296;2023-05-07T03:25:50;9.82;;;7.22;;
68234;SDS011;55052;52.056;5.296;2023-05-07T03:28:17;9.55;;;6.90;;
68234;SDS011;55052;52.056;5.296;2023-05-07T03:30:44;10.70;;;7.93;;
68234;SDS011;55052;52.056;5.296;2023-05-07T03:33:10;10.55;;;7.38;;
68234;SDS011;55052;52.056;5.296;2023-05-07T03:35:37;9.55;;;7.25;;
68234;SDS011;55052;52.056;5.296;2023-05-07T03:38:04;10.02;;;7.80;;
68234;SDS011;55052;52.056;5.296;2023-05-07T03:40:31;11.30;;;7.82;;
68234;SDS011;55052;52.056;5.296;2023-05-07T03:42:59;9.02;;;7.28;;
68234;SDS011;55052;52.056;5.296;2023-05-07T03:45:26;11.75;;;7.72;;
68234;SDS011;55052;52.056;5.296;2023-05-07T03:47:53;10.65;;;7.95;;
68234;SDS011;55052;52.056;5.296;2023-05-07T03:50:20;12.18;;;7.78;;
68234;SDS011;55052;52.056;5.296;2023-05-07T03:52:47;10.98;;;8.88;;
68234;SDS011;55052;52.056;5.296;2023-05-07T03:55:13;17.17;;;9.70;;
68234;SDS011;55052;52.056;5.296;2023-05-07T03:57:40;11.00;;;8.50;;
68234;SDS011;55052;52.056;5.296;2023-05-07T04:00:07;12.45;;;8.18;;
68234;SDS011;55052;52.056;5.296;2023-05-07T04:02:35;14.20;;;8.77;;
68234;SDS011;55052;52.056;5.296;2023-05-07T04:05:02;11.13;;;9.07;;
68234;SDS011;55052;52.056;5.296;2023-05-07T04:07:29;15.48;;;9.35;;
68234;SDS011;55052;52.056;5.296;2023-05-07T04:09:55;13.45;;;10.07;;
68234;SDS011;55052;52.056;5.296;2023-05-07T04:12:22;13.32;;;10.00;;
68234;SDS011;55052;52.056;5.296;2023-05-07T04:14:49;14.18;;;10.07;;
68234;SDS011;55052;52.056;5.296;2023-05-07T04:17:16;14.18;;;10.98;;
68234;SDS011;55052;52.056;5.296;2023-05-07T04:19:43;12.90;;;10.15;;
68234;SDS011;55052;52.056;5.296;2023-05-07T04:22:12;13.32;;;10.52;;
68234;SDS011;55052;52.056;5.296;2023-05-07T04:24:38;14.05;;;10.68;;
68234;SDS011;55052;52.056;5.296;2023-05-07T04:27:05;14.73;;;11.25;;
68234;SDS011;55052;52.056;5.296;2023-05-07T04:29:32;14.90;;;11.27;;
68234;SDS011;55052;52.056;5.296;2023-05-07T04:31:59;16.80;;;11.60;;
68234;SDS011;55052;52.056;5.296;2023-05-07T04:34:26;15.10;;;10.95;;
68234;SDS011;55052;52.056;5.296;2023-05-07T04:36:53;15.15;;;11.55;;
68234;SDS011;55052;52.056;5.296;2023-05-07T04:39:20;14.30;;;11.15;;
68234;SDS011;55052;52.056;5.296;2023-05-07T04:41:46;16.35;;;11.68;;
68234;SDS011;55052;52.056;5.296;2023-05-07T04:44:13;15.30;;;11.68;;
68234;SDS011;55052;52.056;5.296;2023-05-07T04:46:40;14.45;;;11.93;;
68234;SDS011;55052;52.056;5.296;2023-05-07T04:49:06;17.38;;;12.43;;
68234;SDS011;55052;52.056;5.296;2023-05-07T04:51:33;16.17;;;11.48;;
68234;SDS011;55052;52.056;5.296;2023-05-07T04:54:00;14.52;;;12.20;;
68234;SDS011;55052;52.056;5.296;2023-05-07T04:56:27;15.07;;;12.20;;
68234;SDS011;55052;52.056;5.296;2023-05-07T04:58:56;14.23;;;11.52;;
68234;SDS011;55052;52.056;5.296;2023-05-07T05:01:22;15.70;;;12.00;;
68234;SDS011;55052;52.056;5.296;2023-05-07T05:03:49;14.18;;;11.32;;
68234;SDS011;55052;52.056;5.296;2023-05-07T05:06:16;14.52;;;11.55;;
68234;SDS011;55052;52.056;5.296;2023-05-07T05:08:43;17.65;;;11.80;;
68234;SDS011;55052;52.056;5.296;2023-05-07T05:11:10;14.75;;;11.43;;
68234;SDS011;55052;52.056;5.296;2023-05-07T05:13:37;16.42;;;12.32;;
68234;SDS011;55052;52.056;5.296;2023-05-07T05:16:03;17.40;;;12.40;;
68234;SDS011;55052;52.056;5.296;2023-05-07T05:18:31;14.90;;;12.05;;
68234;SDS011;55052;52.056;5.296;2023-05-07T05:20:57;15.00;;;11.63;;
68234;SDS011;55052;52.056;5.296;2023-05-07T05:23:24;16.15;;;11.23;;
68234;SDS011;55052;52.056;5.296;2023-05-07T05:25:55;13.15;;;11.30;;
68234;SDS011;55052;52.056;5.296;2023-05-07T05:28:23;13.77;;;10.75;;
68234;SDS011;55052;52.056;5.296;2023-05-07T05:30:50;14.48;;;11.25;;
68234;SDS011;55052;52.056;5.296;2023-05-07T05:33:17;15.73;;;11.85;;
68234;SDS011;55052;52.056;5.296;2023-05-07T05:35:44;14.93;;;11.65;;
68234;SDS011;55052;52.056;5.296;2023-05-07T05:38:11;13.38;;;10.57;;
68234;SDS011;55052;52.056;5.296;2023-05-07T05:40:37;14.70;;;11.27;;
68234;SDS011;55052;52.056;5.296;2023-05-07T05:43:05;15.23;;;11.25;;
68234;SDS011;55052;52.056;5.296;2023-05-07T05:45:32;14.52;;;10.63;;
68234;SDS011;55052;52.056;5.296;2023-05-07T05:47:58;16.50;;;10.93;;
68234;SDS011;55052;52.056;5.296;2023-05-07T05:50:26;15.88;;;11.52;;
68234;SDS011;55052;52.056;5.296;2023-05-07T05:52:52;15.40;;;11.63;;
68234;SDS011;55052;52.056;5.296;2023-05-07T05:55:19;14.13;;;11.55;;
68234;SDS011;55052;52.056;5.296;2023-05-07T05:57:46;16.42;;;12.02;;
68234;SDS011;55052;52.056;5.296;2023-05-07T06:00:14;14.63;;;11.32;;
68234;SDS011;55052;52.056;5.296;2023-05-07T06:02:42;15.10;;;11.65;;
68234;SDS011;55052;52.056;5.296;2023-05-07T06:05:09;15.52;;;11.57;;
68234;SDS011;55052;52.056;5.296;2023-05-07T06:07:36;15.30;;;11.80;;
68234;SDS011;55052;52.056;5.296;2023-05-07T06:10:03;15.70;;;11.55;;
68234;SDS011;55052;52.056;5.296;2023-05-07T06:12:30;18.20;;;12.68;;
68234;SDS011;55052;52.056;5.296;2023-05-07T06:14:56;18.60;;;11.68;;
68234;SDS011;55052;52.056;5.296;2023-05-07T06:17:23;15.70;;;11.35;;
68234;SDS011;55052;52.056;5.296;2023-05-07T06:19:50;17.85;;;12.63;;
68234;SDS011;55052;52.056;5.296;2023-05-07T06:22:18;16.02;;;12.20;;
68234;SDS011;55052;52.056;5.296;2023-05-07T06:24:45;15.13;;;11.52;;
68234;SDS011;55052;52.056;5.296;2023-05-07T06:27:12;17.60;;;12.23;;
68234;SDS011;55052;52.056;5.296;2023-05-07T06:29:39;16.35;;;11.70;;
68234;SDS011;55052;52.056;5.296;2023-05-07T06:32:06;16.58;;;12.52;;
68234;SDS011;55052;52.056;5.296;2023-05-07T06:34:34;15.93;;;12.30;;
68234;SDS011;55052;52.056;5.296;2023-05-07T06:37:01;15.70;;;11.73;;
68234;SDS011;55052;52.056;5.296;2023-05-07T06:39:28;15.82;;;11.88;;
68234;SDS011;55052;52.056;5.296;2023-05-07T06:41:55;14.35;;;12.23;;
68234;SDS011;55052;52.056;5.296;2023-05-07T06:44:22;17.85;;;12.63;;
68234;SDS011;55052;52.056;5.296;2023-05-07T06:46:48;17.70;;;12.50;;
68234;SDS011;55052;52.056;5.296;2023-05-07T06:49:15;15.15;;;12.30;;
68234;SDS011;55052;52.056;5.296;2023-05-07T06:51:42;16.58;;;12.25;;
68234;SDS011;55052;52.056;5.296;2023-05-07T06:54:09;20.25;;;12.60;;
68234;SDS011;55052;52.056;5.296;2023-05-07T06:56:35;17.20;;;12.77;;
68234;SDS011;55052;52.056;5.296;2023-05-07T06:59:02;20.15;;;12.93;;
68234;SDS011;55052;52.056;5.296;2023-05-07T07:01:29;16.05;;;11.95;;
68234;SDS011;55052;52.056;5.296;2023-05-07T07:03:56;16.55;;;12.95;;
68234;SDS011;55052;52.056;5.296;2023-05-07T07:06:23;19.70;;;13.88;;
68234;SDS011;55052;52.056;5.296;2023-05-07T07:08:50;17.63;;;14.07;;
68234;SDS011;55052;52.056;5.296;2023-05-07T07:11:17;16.42;;;13.38;;
68234;SDS011;55052;52.056;5.296;2023-05-07T07:13:43;20.77;;;13.90;;
68234;SDS011;55052;52.056;5.296;2023-05-07T07:16:10;17.15;;;12.65;;
68234;SDS011;55052;52.056;5.296;2023-05-07T07:18:37;16.20;;;12.68;;
68234;SDS011;55052;52.056;5.296;2023-05-07T07:21:04;18.55;;;13.95;;
68234;SDS011;55052;52.056;5.296;2023-05-07T07:23:32;16.95;;;13.45;;
68234;SDS011;55052;52.056;5.296;2023-05-07T07:25:59;19.67;;;14.45;;
68234;SDS011;55052;52.056;5.296;2023-05-07T07:28:25;16.38;;;12.30;;
68234;SDS011;55052;52.056;5.296;2023-05-07T07:30:52;18.88;;;14.63;;
68234;SDS011;55052;52.056;5.296;2023-05-07T07:33:19;16.70;;;13.20;;
68234;SDS011;55052;52.056;5.296;2023-05-07T07:35:46;16.02;;;13.18;;
68234;SDS011;55052;52.056;5.296;2023-05-07T07:38:13;16.25;;;12.20;;
68234;SDS011;55052;52.056;5.296;2023-05-07T07:40:39;20.48;;;13.82;;
68234;SDS011;55052;52.056;5.296;2023-05-07T07:43:06;17.42;;;12.77;;
68234;SDS011;55052;52.056;5.296;2023-05-07T07:45:33;16.05;;;13.27;;
68234;SDS011;55052;52.056;5.296;2023-05-07T07:48:01;20.35;;;13.50;;
68234;SDS011;55052;52.056;5.296;2023-05-07T07:50:27;16.83;;;12.15;;
68234;SDS011;55052;52.056;5.296;2023-05-07T07:53:10;16.55;;;13.25;;
68234;SDS011;55052;52.056;5.296;2023-05-07T07:55:39;14.93;;;12.60;;
68234;SDS011;55052;52.056;5.296;2023-05-07T07:58:06;19.08;;;12.90;;
68234;SDS011;55052;52.056;5.296;2023-05-07T08:00:33;17.35;;;13.23;;
68234;SDS011;55052;52.056;5.296;2023-05-07T08:03:00;17.85;;;12.98;;
68234;SDS011;55052;52.056;5.296;2023-05-07T08:05:27;18.42;;;12.60;;
68234;SDS011;55052;52.056;5.296;2023-05-07T08:07:54;16.58;;;12.60;;
68234;SDS011;55052;52.056;5.296;2023-05-07T08:10:21;16.73;;;12.77;;
68234;SDS011;55052;52.056;5.296;2023-05-07T08:12:48;18.27;;;13.30;;
68234;SDS011;55052;52.056;5.296;2023-05-07T08:15:16;17.27;;;13.30;;
68234;SDS011;55052;52.056;5.296;2023-05-07T08:17:43;17.50;;;12.98;;
68234;SDS011;55052;52.056;5.296;2023-05-07T08:20:10;16.70;;;12.25;;
68234;SDS011;55052;52.056;5.296;2023-05-07T08:22:37;16.95;;;13.20;;
68234;SDS011;55052;52.056;5.296;2023-05-07T08:25:04;16.70;;;13.32;;
68234;SDS011;55052;52.056;5.296;2023-05-07T08:27:31;19.83;;;14.15;;
68234;SDS011;55052;52.056;5.296;2023-05-07T08:29:58;18.48;;;13.93;;
68234;SDS011;55052;52.056;5.296;2023-05-07T08:32:25;17.08;;;13.52;;
68234;SDS011;55052;52.056;5.296;2023-05-07T08:34:51;17.73;;;13.25;;
68234;SDS011;55052;52.056;5.296;2023-05-07T08:37:18;17.95;;;13.75;;
68234;SDS011;55052;52.056;5.296;2023-05-07T08:39:45;17.85;;;14.07;;
68234;SDS011;55052;52.056;5.296;2023-05-07T08:42:12;17.60;;;13.80;;
68234;SDS011;55052;52.056;5.296;2023-05-07T08:44:42;20.65;;;14.30;;
68234;SDS011;55052;52.056;5.296;2023-05-07T08:47:13;20.35;;;15.23;;
68234;SDS011;55052;52.056;5.296;2023-05-07T08:49:40;19.20;;;14.30;;
68234;SDS011;55052;52.056;5.296;2023-05-07T08:52:07;17.20;;;13.82;;
68234;SDS011;55052;52.056;5.296;2023-05-07T08:54:36;17.45;;;13.70;;
68234;SDS011;55052;52.056;5.296;2023-05-07T08:57:03;17.70;;;13.93;;
68234;SDS011;55052;52.056;5.296;2023-05-07T08:59:30;19.08;;;13.95;;
68234;SDS011;55052;52.056;5.296;2023-05-07T09:01:57;18.23;;;13.10;;
68234;SDS011;55052;52.056;5.296;2023-05-07T09:04:24;15.88;;;12.10;;
68234;SDS011;55052;52.056;5.296;2023-05-07T09:06:51;17.10;;;12.77;;
68234;SDS011;55052;52.056;5.296;2023-05-07T09:09:18;18.95;;;12.05;;
68234;SDS011;55052;52.056;5.296;2023-05-07T09:11:45;14.70;;;10.52;;
68234;SDS011;55052;52.056;5.296;2023-05-07T09:14:11;16.60;;;10.68;;
68234;SDS011;55052;52.056;5.296;2023-05-07T09:16:38;13.10;;;9.52;;
68234;SDS011;55052;52.056;5.296;2023-05-07T09:19:05;12.85;;;8.68;;
68234;SDS011;55052;52.056;5.296;2023-05-07T09:21:32;11.18;;;7.78;;
68234;SDS011;55052;52.056;5.296;2023-05-07T09:23:59;11.55;;;7.45;;
68234;SDS011;55052;52.056;5.296;2023-05-07T09:26:26;9.68;;;6.97;;
68234;SDS011;55052;52.056;5.296;2023-05-07T09:28:54;11.63;;;7.40;;
68234;SDS011;55052;52.056;5.296;2023-05-07T09:31:21;11.02;;;8.07;;
68234;SDS011;55052;52.056;5.296;2023-05-07T09:33:50;12.13;;;8.30;;
68234;SDS011;55052;52.056;5.296;2023-05-07T09:36:16;12.00;;;8.07;;
68234;SDS011;55052;52.056;5.296;2023-05-07T09:38:45;13.23;;;8.45;;
68234;SDS011;55052;52.056;5.296;2023-05-07T09:41:12;13.50;;;9.45;;
68234;SDS011;55052;52.056;5.296;2023-05-07T09:43:39;14.55;;;10.07;;
68234;SDS011;55052;52.056;5.296;2023-05-07T09:46:07;15.75;;;11.65;;
68234;SDS011;55052;52.056;5.296;2023-05-07T09:48:38;16.55;;;12.15;;
68234;SDS011;55052;52.056;5.296;2023-05-07T09:51:11;16.27;;;11.75;;
68234;SDS011;55052;52.056;5.296;2023-05-07T09:53:53;17.27;;;13.23;;
68234;SDS011;55052;52.056;5.296;2023-05-07T09:56:20;17.65;;;13.90;;
68234;SDS011;55052;52.056;5.296;2023-05-07T09:58:47;16.48;;;13.32;;
68234;SDS011;55052;52.056;5.296;2023-05-07T10:01:15;15.65;;;13.80;;
68234;SDS011;55052;52.056;5.296;2023-05-07T10:03:43;17.42;;;14.95;;
68234;SDS011;55052;52.056;5.296;2023-05-07T10:06:12;17.60;;;14.35;;
68234;SDS011;55052;52.056;5.296;2023-05-07T10:08:40;18.90;;;14.85;;
68234;SDS011;55052;52.056;5.296;2023-05-07T10:11:08;19.00;;;15.43;;
68234;SDS011;55052;52.056;5.296;2023-05-07T10:13:36;19.92;;;15.52;;
68234;SDS011;55052;52.056;5.296;2023-05-07T10:16:04;18.83;;;15.77;;
68234;SDS011;55052;52.056;5.296;2023-05-07T10:18:32;17.73;;;15.52;;
68234;SDS011;55052;52.056;5.296;2023-05-07T10:21:15;19.05;;;15.88;;
68234;SDS011;55052;52.056;5.296;2023-05-07T10:23:50;19.40;;;15.45;;
68234;SDS011;55052;52.056;5.296;2023-05-07T10:26:23;17.83;;;15.25;;
68234;SDS011;55052;52.056;5.296;2023-05-07T10:28:53;18.30;;;16.25;;
68234;SDS011;55052;52.056;5.296;2023-05-07T10:34:33;19.10;;;16.70;;
68234;SDS011;55052;52.056;5.296;2023-05-07T10:37:03;19.38;;;16.40;;
68234;SDS011;55052;52.056;5.296;2023-05-07T10:39:30;17.73;;;15.80;;
68234;SDS011;55052;52.056;5.296;2023-05-07T10:42:06;19.48;;;16.17;;
68234;SDS011;55052;52.056;5.296;2023-05-07T10:44:37;19.10;;;16.75;;
68234;SDS011;55052;52.056;5.296;2023-05-07T10:47:12;19.33;;;15.60;;
68234;SDS011;55052;52.056;5.296;2023-05-07T10:52:14;19.58;;;15.85;;
68234;SDS011;55052;52.056;5.296;2023-05-07T10:54:45;17.42;;;14.15;;
68234;SDS011;55052;52.056;5.296;2023-05-07T10:59:57;17.25;;;14.98;;
68234;SDS011;55052;52.056;5.296;2023-05-07T11:03:04;17.73;;;14.45;;
68234;SDS011;55052;52.056;5.296;2023-05-07T11:05:43;16.58;;;13.80;;
68234;SDS011;55052;52.056;5.296;2023-05-07T11:08:10;16.48;;;13.73;;
68234;SDS011;55052;52.056;5.296;2023-05-07T11:10:55;19.65;;;13.95;;
68234;SDS011;55052;52.056;5.296;2023-05-07T11:13:43;18.65;;;13.35;;
68234;SDS011;55052;52.056;5.296;2023-05-07T11:16:24;16.95;;;12.73;;
68234;SDS011;55052;52.056;5.296;2023-05-07T11:18:54;14.95;;;12.18;;
68234;SDS011;55052;52.056;5.296;2023-05-07T11:21:37;15.43;;;11.75;;
68234;SDS011;55052;52.056;5.296;2023-05-07T11:24:09;18.17;;;12.80;;
68234;SDS011;55052;52.056;5.296;2023-05-07T11:26:47;14.45;;;11.73;;
68234;SDS011;55052;52.056;5.296;2023-05-07T11:31:48;16.00;;;12.43;;
68234;SDS011;55052;52.056;5.296;2023-05-07T11:34:23;14.75;;;11.60;;
68234;SDS011;55052;52.056;5.296;2023-05-07T11:36:52;16.48;;;11.93;;
68234;SDS011;55052;52.056;5.296;2023-05-07T11:39:31;16.23;;;11.73;;
68234;SDS011;55052;52.056;5.296;2023-05-07T11:41:59;14.63;;;10.75;;
68234;SDS011;55052;52.056;5.296;2023-05-07T11:44:40;13.85;;;10.40;;
68234;SDS011;55052;52.056;5.296;2023-05-07T11:47:17;13.80;;;11.00;;
68234;SDS011;55052;52.056;5.296;2023-05-07T11:49:48;16.33;;;12.43;;
68234;SDS011;55052;52.056;5.296;2023-05-07T11:52:16;15.30;;;11.25;;
68234;SDS011;55052;52.056;5.296;2023-05-07T11:54:50;16.85;;;12.82;;
68234;SDS011;55052;52.056;5.296;2023-05-07T11:57:21;16.52;;;13.52;;
68234;SDS011;55052;52.056;5.296;2023-05-07T11:59:55;18.38;;;12.77;;
68234;SDS011;55052;52.056;5.296;2023-05-07T12:02:25;20.27;;;13.00;;
68234;SDS011;55052;52.056;5.296;2023-05-07T12:04:53;18.20;;;13.30;;
68234;SDS011;55052;52.056;5.296;2023-05-07T12:07:20;18.10;;;12.98;;
68234;SDS011;55052;52.056;5.296;2023-05-07T12:09:47;17.65;;;12.57;;
68234;SDS011;55052;52.056;5.296;2023-05-07T12:12:14;14.60;;;10.98;;
68234;SDS011;55052;52.056;5.296;2023-05-07T12:14:44;17.27;;;12.43;;
68234;SDS011;55052;52.056;5.296;2023-05-07T12:17:12;16.52;;;13.98;;
68234;SDS011;55052;52.056;5.296;2023-05-07T12:19:41;15.07;;;10.65;;
68234;SDS011;55052;52.056;5.296;2023-05-07T12:22:10;16.33;;;11.73;;
68234;SDS011;55052;52.056;5.296;2023-05-07T12:24:56;17.90;;;13.68;;
68234;SDS011;55052;52.056;5.296;2023-05-07T12:27:24;39.97;;;12.55;;
68234;SDS011;55052;52.056;5.296;2023-05-07T12:29:52;14.13;;;9.30;;
68234;SDS011;55052;52.056;5.296;2023-05-07T12:32:19;13.55;;;8.55;;
68234;SDS011;55052;52.056;5.296;2023-05-07T12:34:50;9.85;;;7.97;;
68234;SDS011;55052;52.056;5.296;2023-05-07T12:37:22;12.25;;;7.05;;
68234;SDS011;55052;52.056;5.296;2023-05-07T12:40:06;13.93;;;8.38;;
68234;SDS011;55052;52.056;5.296;2023-05-07T12:42:35;9.70;;;6.45;;
68234;SDS011;55052;52.056;5.296;2023-05-07T12:45:09;11.00;;;7.15;;
68234;SDS011;55052;52.056;5.296;2023-05-07T12:47:38;12.73;;;7.85;;
68234;SDS011;55052;52.056;5.296;2023-05-07T12:50:06;14.07;;;7.72;;
68234;SDS011;55052;52.056;5.296;2023-05-07T12:52:33;9.77;;;6.72;;
68234;SDS011;55052;52.056;5.296;2023-05-07T12:55:07;11.70;;;5.82;;
68234;SDS011;55052;52.056;5.296;2023-05-07T12:57:38;10.38;;;5.88;;
68234;SDS011;55052;52.056;5.296;2023-05-07T13:00:06;12.50;;;6.20;;
68234;SDS011;55052;52.056;5.296;2023-05-07T13:02:38;8.65;;;5.32;;
68234;SDS011;55052;52.056;5.296;2023-05-07T13:05:06;9.68;;;4.75;;
68234;SDS011;55052;52.056;5.296;2023-05-07T13:07:35;7.60;;;4.70;;
68234;SDS011;55052;52.056;5.296;2023-05-07T13:10:03;9.10;;;5.05;;
68234;SDS011;55052;52.056;5.296;2023-05-07T13:12:30;8.88;;;4.55;;
68234;SDS011;55052;52.056;5.296;2023-05-07T13:14:57;11.52;;;4.63;;
68234;SDS011;55052;52.056;5.296;2023-05-07T13:17:25;6.40;;;3.63;;
68234;SDS011;55052;52.056;5.296;2023-05-07T13:19:52;8.50;;;4.82;;
68234;SDS011;55052;52.056;5.296;2023-05-07T13:22:19;6.40;;;4.03;;
68234;SDS011;55052;52.056;5.296;2023-05-07T13:24:45;9.45;;;4.43;;
68234;SDS011;55052;52.056;5.296;2023-05-07T13:27:12;9.07;;;4.85;;
68234;SDS011;55052;52.056;5.296;2023-05-07T13:29:39;10.70;;;4.90;;
68234;SDS011;55052;52.056;5.296;2023-05-07T13:32:06;8.23;;;4.65;;
68234;SDS011;55052;52.056;5.296;2023-05-07T13:34:33;9.57;;;4.57;;
68234;SDS011;55052;52.056;5.296;2023-05-07T13:36:59;8.35;;;4.97;;
68234;SDS011;55052;52.056;5.296;2023-05-07T13:39:27;8.68;;;4.57;;
68234;SDS011;55052;52.056;5.296;2023-05-07T13:41:53;6.95;;;4.00;;
68234;SDS011;55052;52.056;5.296;2023-05-07T13:44:20;8.73;;;4.55;;
68234;SDS011;55052;52.056;5.296;2023-05-07T13:46:47;8.88;;;4.60;;
68234;SDS011;55052;52.056;5.296;2023-05-07T13:49:14;9.25;;;5.00;;
68234;SDS011;55052;52.056;5.296;2023-05-07T13:51:41;9.90;;;5.30;;
68234;SDS011;55052;52.056;5.296;2023-05-07T13:54:08;9.52;;;5.20;;
68234;SDS011;55052;52.056;5.296;2023-05-07T13:56:34;11.55;;;4.85;;
68234;SDS011;55052;52.056;5.296;2023-05-07T13:59:01;9.43;;;4.63;;
68234;SDS011;55052;52.056;5.296;2023-05-07T14:01:28;7.32;;;3.90;;
68234;SDS011;55052;52.056;5.296;2023-05-07T14:03:55;8.98;;;4.07;;
68234;SDS011;55052;52.056;5.296;2023-05-07T14:06:24;9.07;;;4.30;;
68234;SDS011;55052;52.056;5.296;2023-05-07T14:08:51;8.23;;;4.53;;
68234;SDS011;55052;52.056;5.296;2023-05-07T14:11:17;8.25;;;4.90;;
68234;SDS011;55052;52.056;5.296;2023-05-07T14:13:45;9.25;;;4.90;;
68234;SDS011;55052;52.056;5.296;2023-05-07T14:16:11;9.55;;;4.15;;
68234;SDS011;55052;52.056;5.296;2023-05-07T14:18:38;7.55;;;4.30;;
68234;SDS011;55052;52.056;5.296;2023-05-07T14:21:05;6.90;;;4.00;;
68234;SDS011;55052;52.056;5.296;2023-05-07T14:23:36;8.02;;;4.97;;
68234;SDS011;55052;52.056;5.296;2023-05-07T14:26:02;11.02;;;6.35;;
68234;SDS011;55052;52.056;5.296;2023-05-07T14:28:29;7.28;;;4.93;;
68234;SDS011;55052;52.056;5.296;2023-05-07T14:30:56;9.20;;;5.78;;
68234;SDS011;55052;52.056;5.296;2023-05-07T14:33:23;8.18;;;5.22;;
68234;SDS011;55052;52.056;5.296;2023-05-07T14:35:50;8.00;;;3.15;;
68234;SDS011;55052;52.056;5.296;2023-05-07T14:38:16;8.57;;;4.30;;
68234;SDS011;55052;52.056;5.296;2023-05-07T14:40:44;8.35;;;3.92;;
68234;SDS011;55052;52.056;5.296;2023-05-07T14:43:11;7.47;;;3.60;;
68234;SDS011;55052;52.056;5.296;2023-05-07T14:45:38;7.07;;;4.03;;
68234;SDS011;55052;52.056;5.296;2023-05-07T14:48:05;8.25;;;4.53;;